Time;durP1;ratioP1;P1;durP2;ratioP2;P2;SDS_P1;SDS_P2;PMS_P1;PMS_P2;Temp;Humidity;BMP_temperature;BMP_pressure;BME280_temperature;BME280_humidity;BME280_pressure;Samples;Min_cycle;Max_cycle;Signal;HPM_P1;HPM_P2
2023/01/13 00:00:54;;;;;;;2.07;1.50;;;12.40;99.90;;;;;;5014291;28;20534;-72
2023/01/13 00:03:20;;;;;;;2.27;1.70;;;12.40;99.90;;;;;;5015942;28;20277;-72
2023/01/13 00:05:46;;;;;;;3.33;1.50;;;12.40;99.90;;;;;;5014330;28;20215;-72
2023/01/13 00:08:11;;;;;;;3.13;1.50;;;12.40;99.90;;;;;;5018905;28;20242;-72
2023/01/13 00:10:37;;;;;;;3.50;1.80;;;12.40;99.90;;;;;;5017882;28;20193;-73
2023/01/13 00:13:04;;;;;;;2.13;1.20;;;12.30;99.90;;;;;;5017517;28;20294;-73
2023/01/13 00:15:30;;;;;;;8.10;1.67;;;12.40;99.90;;;;;;5014587;28;20852;-73
2023/01/13 00:17:56;;;;;;;4.60;1.70;;;12.30;99.90;;;;;;5014394;28;20476;-73
2023/01/13 00:20:22;;;;;;;2.73;1.60;;;12.30;99.90;;;;;;5016857;28;20446;-72
2023/01/13 00:22:47;;;;;;;3.60;1.90;;;12.40;99.90;;;;;;5016802;28;20207;-72
2023/01/13 00:25:13;;;;;;;3.17;1.60;;;12.40;99.90;;;;;;5017073;28;20188;-72
2023/01/13 00:27:38;;;;;;;2.77;1.50;;;12.50;99.90;;;;;;5016771;28;20708;-72
2023/01/13 00:30:05;;;;;;;3.00;1.50;;;12.50;99.90;;;;;;5015740;28;20215;-72
2023/01/13 00:32:31;;;;;;;2.27;1.40;;;12.50;99.90;;;;;;5018163;28;20247;-73
2023/01/13 00:34:57;;;;;;;2.10;1.50;;;12.40;99.90;;;;;;5017549;28;20509;-72
2023/01/13 00:37:23;;;;;;;2.30;1.60;;;12.50;99.90;;;;;;5016456;28;20254;-73
2023/01/13 00:39:50;;;;;;;2.20;1.30;;;12.40;99.90;;;;;;5013464;28;20859;-72
2023/01/13 00:45:00;;;;;;;2.43;1.50;;;12.40;99.90;;;;;;5013557;28;20490;-72
2023/01/13 00:47:26;;;;;;;7.10;1.90;;;12.30;99.90;;;;;;5010727;28;21008;-72
2023/01/13 00:49:52;;;;;;;5.77;1.47;;;12.30;99.90;;;;;;5009893;28;20446;-72
2023/01/13 00:52:17;;;;;;;2.67;1.20;;;12.30;99.90;;;;;;5016871;28;20207;-72
2023/01/13 00:54:43;;;;;;;2.93;1.50;;;12.20;99.90;;;;;;5014322;28;20330;-73
2023/01/13 00:57:08;;;;;;;2.33;1.40;;;12.20;99.90;;;;;;5014042;28;20800;-72
2023/01/13 00:59:34;;;;;;;4.80;1.70;;;12.20;99.90;;;;;;5015650;28;20665;-73
2023/01/13 01:02:00;;;;;;;2.73;1.53;;;12.20;99.90;;;;;;5007231;28;20196;-72
2023/01/13 01:04:25;;;;;;;3.90;1.60;;;12.20;99.90;;;;;;5015513;28;20252;-72
2023/01/13 01:06:51;;;;;;;2.57;1.50;;;12.20;99.90;;;;;;5020705;28;20219;-70
2023/01/13 01:09:17;;;;;;;6.20;1.90;;;12.20;99.90;;;;;;5016445;28;21016;-72
2023/01/13 01:11:43;;;;;;;2.70;1.37;;;12.20;99.90;;;;;;5017411;28;20223;-72
2023/01/13 01:14:11;;;;;;;3.20;1.47;;;12.20;99.90;;;;;;5015548;28;21027;-72
2023/01/13 01:16:38;;;;;;;2.90;1.70;;;12.20;99.90;;;;;;5017621;28;20459;-73
2023/01/13 01:19:05;;;;;;;2.83;1.80;;;12.10;99.90;;;;;;5019499;28;21227;-72
2023/01/13 01:21:31;;;;;;;2.63;1.50;;;12.10;99.90;;;;;;5017747;28;20500;-73
2023/01/13 01:24:02;;;;;;;3.80;1.50;;;12.00;99.90;;;;;;5015923;28;20439;-72
2023/01/13 01:26:30;;;;;;;2.50;1.50;;;11.90;99.90;;;;;;5017846;28;20466;-72
2023/01/13 01:28:55;;;;;;;4.27;1.33;;;12.00;99.90;;;;;;5012422;28;20439;-73
2023/01/13 01:31:27;;;;;;;4.53;1.60;;;11.80;99.90;;;;;;5014124;28;20431;-73
2023/01/13 01:33:54;;;;;;;3.40;1.23;;;11.70;99.90;;;;;;5015686;28;20215;-73
2023/01/13 01:36:21;;;;;;;2.30;1.40;;;11.70;99.90;;;;;;5019021;28;20458;-73
2023/01/13 01:38:48;;;;;;;2.93;1.40;;;11.70;99.90;;;;;;5020963;28;20537;-72
2023/01/13 01:41:17;;;;;;;3.17;1.50;;;11.70;99.90;;;;;;5017831;28;20526;-71
2023/01/13 01:44:27;;;;;;;2.10;1.20;;;11.70;99.90;;;;;;5015787;28;20835;-71
2023/01/13 01:46:54;;;;;;;2.60;1.50;;;11.70;99.90;;;;;;5018093;28;20463;-71
2023/01/13 01:49:28;;;;;;;5.23;1.63;;;11.60;99.90;;;;;;5017240;28;20450;-71
2023/01/13 01:52:05;;;;;;;2.00;1.23;;;11.60;99.90;;;;;;5020777;28;20482;-71
2023/01/13 01:54:36;;;;;;;2.33;1.40;;;11.60;99.90;;;;;;5017664;28;20443;-71
2023/01/13 01:57:03;;;;;;;1.70;1.00;;;11.60;99.90;;;;;;5014438;28;20991;-72
2023/01/13 01:59:31;;;;;;;2.00;1.43;;;11.70;99.90;;;;;;5016625;28;20443;-72
2023/01/13 02:01:57;;;;;;;2.20;1.30;;;11.80;99.90;;;;;;5015808;28;20443;-72
2023/01/13 02:04:28;;;;;;;2.50;1.40;;;11.80;99.90;;;;;;5014184;28;20473;-72
2023/01/13 02:06:55;;;;;;;5.67;1.83;;;11.80;99.90;;;;;;5012551;28;20463;-72
2023/01/13 02:09:21;;;;;;;2.37;1.43;;;11.80;99.90;;;;;;5012184;28;20957;-72
2023/01/13 02:14:33;;;;;;;4.70;1.30;;;11.80;99.90;;;;;;5014462;28;20194;-72
2023/01/13 02:17:09;;;;;;;4.90;1.40;;;11.80;99.90;;;;;;5015887;28;20492;-72
2023/01/13 02:20:01;;;;;;;2.40;1.60;;;11.80;99.90;;;;;;5017817;28;20521;-72
2023/01/13 02:22:59;;;;;;;5.23;1.60;;;11.80;99.90;;;;;;5018119;28;21113;-72
2023/01/13 02:25:56;;;;;;;3.03;1.30;;;11.60;99.90;;;;;;5012769;28;20815;-71
2023/01/13 02:31:40;;;;;;;3.10;1.40;;;11.60;99.90;;;;;;5015082;28;20478;-71
2023/01/13 02:31:43;;;;;;;2.53;1.60;;;11.40;99.90;;;;;;5014717;28;20442;-71
2023/01/13 02:34:28;;;;;;;3.63;1.47;;;11.50;99.90;;;;;;5015947;28;20460;-71
2023/01/13 02:37:04;;;;;;;2.00;1.30;;;11.50;99.90;;;;;;5018402;28;21047;-70
2023/01/13 02:39:59;;;;;;;4.67;1.60;;;11.40;99.90;;;;;;5017495;28;20938;-71
2023/01/13 02:45:30;;;;;;;3.67;1.33;;;11.50;99.90;;;;;;5010821;28;20460;-71
2023/01/13 02:47:57;;;;;;;2.90;1.53;;;11.60;99.90;;;;;;5017284;28;20431;-70
2023/01/13 02:50:31;;;;;;;2.43;1.53;;;11.60;99.90;;;;;;5014166;28;20441;-70
2023/01/13 02:53:02;;;;;;;1.93;1.33;;;11.60;99.90;;;;;;5015545;28;21167;-71
2023/01/13 02:55:36;;;;;;;2.90;1.70;;;11.70;99.90;;;;;;5017782;28;20440;-71
2023/01/13 02:58:06;;;;;;;3.23;1.40;;;11.80;99.90;;;;;;5017353;28;20794;-70
2023/01/13 03:00:34;;;;;;;3.63;1.80;;;11.70;99.90;;;;;;5016658;28;20434;-70
2023/01/13 03:03:00;;;;;;;3.27;1.50;;;11.80;99.90;;;;;;5017407;28;20448;-71
2023/01/13 03:05:26;;;;;;;3.33;1.30;;;11.90;99.90;;;;;;5019890;28;20445;-71
2023/01/13 03:08:10;;;;;;;4.73;1.67;;;11.90;99.90;;;;;;5013900;28;20447;-70
2023/01/13 03:11:03;;;;;;;3.67;1.40;;;11.90;99.90;;;;;;5015583;28;20438;-70
2023/01/13 03:13:28;;;;;;;4.10;1.47;;;11.90;99.90;;;;;;5014391;28;20467;-71
2023/01/13 03:16:03;;;;;;;1.90;1.20;;;11.90;99.90;;;;;;5016014;28;20471;-70
2023/01/13 03:18:29;;;;;;;2.53;1.30;;;11.90;99.90;;;;;;5015550;28;20179;-71
2023/01/13 03:21:06;;;;;;;3.20;1.53;;;11.90;99.90;;;;;;5014132;28;20431;-71
2023/01/13 03:23:48;;;;;;;5.23;1.43;;;11.90;99.90;;;;;;5015880;28;20188;-72
2023/01/13 03:26:30;;;;;;;3.70;1.30;;;12.00;99.90;;;;;;5014135;28;20455;-71
2023/01/13 03:29:05;;;;;;;4.27;1.70;;;12.00;99.90;;;;;;5013537;28;20446;-71
2023/01/13 03:31:35;;;;;;;2.20;1.40;;;12.00;99.90;;;;;;5008869;28;20437;-71
2023/01/13 03:34:06;;;;;;;4.80;2.10;;;12.00;99.90;;;;;;5010763;28;20431;-71
2023/01/13 03:36:34;;;;;;;2.10;1.50;;;12.10;99.90;;;;;;5021081;28;20523;-71
2023/01/13 03:39:10;;;;;;;3.47;1.60;;;12.10;99.90;;;;;;5015699;28;20431;-71
2023/01/13 03:41:53;;;;;;;2.83;1.30;;;12.10;99.90;;;;;;5011860;28;20442;-72
2023/01/13 03:44:37;;;;;;;2.70;1.50;;;12.20;99.90;;;;;;5014281;28;20441;-71
2023/01/13 03:47:18;;;;;;;1.93;1.27;;;12.10;99.90;;;;;;5011890;28;20959;-71
2023/01/13 03:50:02;;;;;;;2.70;1.33;;;12.10;99.90;;;;;;5013554;28;20972;-71
2023/01/13 03:52:32;;;;;;;2.87;1.40;;;12.10;99.90;;;;;;5017332;28;20502;-71
2023/01/13 03:55:05;;;;;;;1.83;1.30;;;12.10;99.90;;;;;;5013882;28;20525;-70
2023/01/13 03:57:35;;;;;;;1.70;1.30;;;12.10;99.90;;;;;;5012681;28;20431;-71
2023/01/13 04:00:04;;;;;;;6.03;1.60;;;12.10;99.90;;;;;;5014515;28;20407;-71
2023/01/13 04:02:53;;;;;;;3.20;1.33;;;12.10;99.90;;;;;;5010453;28;20531;-71
2023/01/13 04:05:19;;;;;;;3.77;1.70;;;12.10;99.90;;;;;;5016199;28;20466;-72
2023/01/13 04:08:01;;;;;;;2.23;1.20;;;12.20;99.90;;;;;;5012294;28;21238;-72
2023/01/13 04:10:31;;;;;;;2.73;1.30;;;12.10;99.90;;;;;;5015920;28;20525;-72
2023/01/13 04:13:01;;;;;;;3.60;1.30;;;12.00;99.90;;;;;;5010033;28;20467;-72
2023/01/13 04:15:35;;;;;;;2.80;1.20;;;12.10;99.90;;;;;;5026542;28;20415;-72
2023/01/13 04:18:15;;;;;;;2.93;1.37;;;12.20;99.90;;;;;;5014621;28;20451;-71
2023/01/13 04:20:43;;;;;;;2.73;1.20;;;12.10;99.90;;;;;;5017196;28;20466;-73
2023/01/13 04:23:09;;;;;;;2.00;1.10;;;12.10;99.90;;;;;;5009813;28;20562;-71
2023/01/13 04:25:35;;;;;;;1.87;1.33;;;12.00;99.90;;;;;;5015266;28;20438;-71
2023/01/13 04:28:01;;;;;;;5.50;1.37;;;12.00;99.90;;;;;;5010754;28;20435;-70
2023/01/13 04:30:27;;;;;;;3.90;1.57;;;12.10;99.90;;;;;;5011455;28;20942;-71
2023/01/13 04:32:52;;;;;;;4.63;1.50;;;12.10;99.90;;;;;;5004548;28;20296;-70
2023/01/13 04:35:18;;;;;;;3.83;1.40;;;12.10;99.90;;;;;;5012772;28;20176;-70
2023/01/13 04:37:44;;;;;;;1.70;1.20;;;12.00;99.90;;;;;;5013236;28;20177;-70
2023/01/13 04:40:10;;;;;;;2.40;1.30;;;12.10;99.90;;;;;;5007054;28;20235;-70
2023/01/13 04:42:35;;;;;;;3.57;1.33;;;12.10;99.90;;;;;;5016454;28;20181;-70
2023/01/13 04:45:01;;;;;;;1.80;1.27;;;12.00;99.90;;;;;;5013665;28;20459;-70
2023/01/13 04:47:26;;;;;;;2.73;1.20;;;12.00;99.90;;;;;;5005194;28;21810;-70
2023/01/13 04:49:52;;;;;;;1.80;1.27;;;12.00;99.90;;;;;;4973434;28;1052332;-70
2023/01/13 04:52:17;;;;;;;2.20;1.40;;;12.00;99.90;;;;;;5012556;28;20293;-69
2023/01/13 04:54:43;;;;;;;4.20;1.20;;;12.00;99.90;;;;;;5016027;28;20194;-69
2023/01/13 04:57:09;;;;;;;1.90;1.10;;;12.00;99.90;;;;;;5012326;28;20243;-69
2023/01/13 04:59:34;;;;;;;2.50;1.30;;;12.00;99.90;;;;;;5013878;28;20173;-70
2023/01/13 05:02:00;;;;;;;2.37;1.20;;;12.00;99.90;;;;;;5010303;28;20189;-69
2023/01/13 05:04:26;;;;;;;1.90;1.10;;;12.00;99.90;;;;;;5012736;28;20267;-70
2023/01/13 05:06:51;;;;;;;1.97;1.13;;;12.00;99.90;;;;;;5023812;28;20583;-70
2023/01/13 05:09:17;;;;;;;2.93;1.20;;;12.00;99.90;;;;;;5018496;28;20740;-70
2023/01/13 05:17:23;;;;;;;1.63;1.10;;;12.00;99.90;;;;;;5013959;28;20590;-69
2023/01/13 05:19:49;;;;;;;2.07;1.20;;;12.00;99.90;;;;;;5018957;28;20936;-69
2023/01/13 05:27:43;;;;;;;2.30;1.20;;;12.00;99.90;;;;;;5016037;28;20454;-71
2023/01/13 05:30:09;;;;;;;1.80;1.13;;;12.00;99.90;;;;;;5014802;28;20427;-70
2023/01/13 05:32:35;;;;;;;3.73;1.30;;;11.90;99.90;;;;;;5015530;28;20665;-70
2023/01/13 05:35:01;;;;;;;2.20;1.13;;;12.00;99.90;;;;;;5018632;28;20470;-70
2023/01/13 05:37:26;;;;;;;1.67;1.37;;;11.90;99.90;;;;;;5012964;28;20200;-70
2023/01/13 05:45:21;;;;;;;1.70;1.10;;;12.00;99.90;;;;;;5016476;28;20411;-70
2023/01/13 05:47:47;;;;;;;1.90;1.20;;;11.90;99.90;;;;;;5012815;28;20443;-70
2023/01/13 05:50:12;;;;;;;1.77;1.00;;;11.90;99.90;;;;;;5018653;28;20201;-70
2023/01/13 05:52:38;;;;;;;2.03;1.30;;;11.90;99.90;;;;;;5020094;28;20298;-70
2023/01/13 05:55:04;;;;;;;1.93;1.20;;;11.90;99.90;;;;;;5017773;28;20196;-70
2023/01/13 05:57:29;;;;;;;1.67;1.30;;;11.90;99.90;;;;;;5018757;28;20249;-70
2023/01/13 05:59:55;;;;;;;1.70;1.13;;;12.00;99.90;;;;;;5018306;28;20416;-70
2023/01/13 06:02:21;;;;;;;2.67;1.10;;;12.00;99.90;;;;;;5014030;28;20192;-70
2023/01/13 06:04:46;;;;;;;2.43;1.00;;;12.00;99.90;;;;;;5013352;28;20216;-70
2023/01/13 06:07:12;;;;;;;2.70;1.20;;;12.00;99.90;;;;;;5018250;28;20287;-70
2023/01/13 06:09:40;;;;;;;1.60;1.10;;;12.00;99.90;;;;;;5015054;28;20271;-71
2023/01/13 06:12:06;;;;;;;2.57;1.30;;;12.00;99.90;;;;;;5013672;28;20220;-71
2023/01/13 06:14:38;;;;;;;1.73;1.20;;;12.00;99.90;;;;;;5016377;28;20981;-71
2023/01/13 06:17:08;;;;;;;2.00;1.10;;;12.00;99.90;;;;;;5014418;28;20201;-69
2023/01/13 06:19:33;;;;;;;2.13;1.00;;;12.00;99.90;;;;;;5018919;28;20472;-70
2023/01/13 06:22:10;;;;;;;2.00;1.40;;;12.00;99.90;;;;;;5013666;28;20426;-69
2023/01/13 06:24:36;;;;;;;5.23;1.17;;;11.90;99.90;;;;;;5017308;28;20176;-68
2023/01/13 06:27:03;;;;;;;1.83;1.13;;;12.00;99.90;;;;;;5010241;28;20739;-70
2023/01/13 06:29:29;;;;;;;1.70;1.17;;;11.90;99.90;;;;;;5017196;28;20812;-70
2023/01/13 06:31:55;;;;;;;2.40;1.43;;;12.00;99.90;;;;;;5014664;28;20471;-72
2023/01/13 06:34:26;;;;;;;1.67;1.17;;;12.00;99.90;;;;;;5008989;28;20184;-72
2023/01/13 06:36:54;;;;;;;1.90;1.10;;;12.00;99.90;;;;;;5014502;28;20534;-72
2023/01/13 06:39:23;;;;;;;1.60;1.00;;;12.00;99.90;;;;;;5012893;28;20435;-73
2023/01/13 06:44:36;;;;;;;2.60;1.10;;;11.90;99.90;;;;;;5018288;28;21101;-72
2023/01/13 06:47:02;;;;;;;4.80;1.30;;;11.80;99.90;;;;;;5012759;28;20471;-72
2023/01/13 06:49:27;;;;;;;2.30;1.10;;;11.90;99.90;;;;;;5012250;28;20564;-69
2023/01/13 06:51:53;;;;;;;2.80;1.20;;;12.00;99.90;;;;;;5018979;28;20320;-70
2023/01/13 06:54:18;;;;;;;5.40;1.30;;;11.90;99.90;;;;;;5012145;28;20208;-69
2023/01/13 06:56:44;;;;;;;1.67;1.10;;;11.90;99.90;;;;;;5019231;28;20203;-70
2023/01/13 06:59:09;;;;;;;1.97;1.10;;;11.90;99.90;;;;;;5014539;28;20188;-69
2023/01/13 07:01:35;;;;;;;1.77;1.20;;;11.90;99.90;;;;;;5005958;28;20259;-70
2023/01/13 07:04:01;;;;;;;1.60;1.00;;;11.90;99.90;;;;;;5014650;28;20195;-70
2023/01/13 07:06:27;;;;;;;1.70;1.10;;;11.90;99.90;;;;;;5016088;28;20195;-69
2023/01/13 07:08:53;;;;;;;3.27;1.23;;;11.90;99.90;;;;;;5011663;28;20561;-70
2023/01/13 07:11:19;;;;;;;3.00;1.40;;;11.90;99.90;;;;;;5019023;28;20427;-70
2023/01/13 07:16:28;;;;;;;1.50;1.10;;;11.90;99.90;;;;;;5021289;28;20210;-68
2023/01/13 07:18:54;;;;;;;2.30;1.10;;;11.80;99.90;;;;;;5016266;28;20407;-68
2023/01/13 07:21:20;;;;;;;1.57;1.00;;;11.90;99.90;;;;;;5020943;28;20195;-67
2023/01/13 07:23:46;;;;;;;1.70;1.30;;;11.80;99.90;;;;;;5020835;28;20184;-68
2023/01/13 07:26:13;;;;;;;1.83;1.27;;;11.80;99.90;;;;;;5016302;28;20813;-69
2023/01/13 07:28:39;;;;;;;1.50;0.90;;;11.90;99.90;;;;;;5016594;28;20446;-69
2023/01/13 07:31:11;;;;;;;1.80;1.17;;;11.90;99.90;;;;;;5015303;28;20456;-68
2023/01/13 07:33:37;;;;;;;3.10;1.20;;;11.90;99.90;;;;;;5016271;28;21164;-67
2023/01/13 07:36:04;;;;;;;1.70;1.20;;;12.00;99.90;;;;;;5015394;28;20528;-68
2023/01/13 07:38:31;;;;;;;2.80;1.20;;;12.00;99.90;;;;;;5015603;28;20192;-68
2023/01/13 07:40:56;;;;;;;1.70;1.10;;;11.80;99.90;;;;;;5018847;28;20520;-69
2023/01/13 07:43:31;;;;;;;1.80;1.27;;;11.70;99.90;;;;;;5023078;28;20530;-68
2023/01/13 07:45:58;;;;;;;2.00;1.40;;;11.50;99.90;;;;;;5015515;28;20212;-68
2023/01/13 07:48:24;;;;;;;2.50;1.10;;;11.30;99.90;;;;;;5020291;28;20978;-68
2023/01/13 07:50:50;;;;;;;1.60;1.03;;;11.10;99.90;;;;;;5021049;28;20931;-68
2023/01/13 07:53:16;;;;;;;2.60;1.37;;;11.10;99.90;;;;;;5019408;28;20482;-68
2023/01/13 07:55:41;;;;;;;3.20;1.30;;;10.80;99.90;;;;;;5023518;28;20207;-68
2023/01/13 07:58:08;;;;;;;3.00;1.37;;;10.70;99.90;;;;;;5018681;28;20208;-70
2023/01/13 08:00:34;;;;;;;3.50;2.90;;;10.70;99.90;;;;;;5019880;28;20419;-68
2023/01/13 08:03:00;;;;;;;2.43;1.33;;;10.60;99.90;;;;;;5015126;28;20532;-68
2023/01/13 08:05:25;;;;;;;5.00;1.30;;;10.50;99.90;;;;;;5015504;28;20443;-68
2023/01/13 08:07:51;;;;;;;1.97;1.00;;;10.50;99.90;;;;;;5018687;28;20275;-69
2023/01/13 08:10:17;;;;;;;2.10;1.30;;;10.60;99.90;;;;;;5016353;28;20625;-68
2023/01/13 08:15:28;;;;;;;5.07;1.40;;;10.50;99.90;;;;;;5018352;28;20656;-67
2023/01/13 08:17:54;;;;;;;2.00;1.40;;;10.50;99.90;;;;;;5017010;28;20467;-68
2023/01/13 08:20:20;;;;;;;3.10;1.37;;;10.60;99.90;;;;;;5017730;28;20427;-68
2023/01/13 08:22:45;;;;;;;4.50;1.97;;;10.60;99.90;;;;;;5015789;28;20454;-68
2023/01/13 08:25:11;;;;;;;2.63;1.37;;;10.60;99.90;;;;;;5019069;28;20358;-69
2023/01/13 08:27:37;;;;;;;4.13;1.20;;;10.50;99.90;;;;;;5017656;28;21206;-69
2023/01/13 08:30:04;;;;;;;2.50;1.70;;;10.50;99.90;;;;;;5020216;28;20448;-68
2023/01/13 08:32:30;;;;;;;2.70;1.47;;;10.60;99.90;;;;;;5016267;28;20208;-68
2023/01/13 08:34:55;;;;;;;4.30;1.40;;;10.50;99.90;;;;;;5020907;28;20995;-68
2023/01/13 08:37:21;;;;;;;2.67;1.43;;;10.60;99.90;;;;;;5017358;28;20202;-69
2023/01/13 08:39:47;;;;;;;2.57;1.30;;;10.60;99.90;;;;;;5020239;28;20200;-69
2023/01/13 08:42:12;;;;;;;2.93;1.40;;;10.60;99.90;;;;;;5014552;28;20661;-68
2023/01/13 08:44:38;;;;;;;1.93;1.20;;;10.70;99.90;;;;;;5017262;28;20208;-69
2023/01/13 08:47:03;;;;;;;6.07;1.80;;;10.80;99.90;;;;;;5022032;28;20208;-68
2023/01/13 08:49:29;;;;;;;1.90;1.17;;;10.80;99.90;;;;;;5016943;28;20192;-68
2023/01/13 08:51:55;;;;;;;2.10;1.10;;;10.80;99.90;;;;;;5025165;28;20306;-68
2023/01/13 08:54:20;;;;;;;3.60;1.50;;;10.70;99.90;;;;;;5021449;28;20191;-68
2023/01/13 08:56:46;;;;;;;4.13;1.70;;;10.70;99.90;;;;;;5020079;28;20200;-68
2023/01/13 08:59:17;;;;;;;4.97;1.33;;;10.70;99.90;;;;;;5015459;28;20188;-68
2023/01/13 09:01:44;;;;;;;5.97;1.37;;;10.70;99.90;;;;;;5016022;28;20462;-68
2023/01/13 09:04:17;;;;;;;4.47;1.73;;;10.80;99.90;;;;;;5014838;28;20842;-68
2023/01/13 09:06:43;;;;;;;3.27;1.60;;;10.90;99.90;;;;;;5016286;28;20438;-68
2023/01/13 09:09:09;;;;;;;1.70;1.30;;;10.90;99.90;;;;;;5015345;28;20423;-68
2023/01/13 09:14:24;;;;;;;3.60;1.53;;;11.00;99.90;;;;;;5013815;28;20187;-68
2023/01/13 09:16:50;;;;;;;6.57;5.47;;;11.00;99.90;;;;;;5016903;28;20431;-68
2023/01/13 09:19:16;;;;;;;6.90;1.70;;;11.00;99.90;;;;;;5015872;28;20962;-68
2023/01/13 09:21:41;;;;;;;5.27;1.50;;;11.00;99.90;;;;;;5018038;28;20563;-68
2023/01/13 09:24:07;;;;;;;3.97;1.63;;;11.00;99.90;;;;;;5013796;28;20181;-68
2023/01/13 09:26:33;;;;;;;2.50;1.80;;;11.00;99.90;;;;;;5021206;28;20196;-68
2023/01/13 09:28:59;;;;;;;7.00;1.70;;;11.00;99.90;;;;;;5021254;28;20430;-68
2023/01/13 09:31:24;;;;;;;6.47;2.20;;;11.00;99.90;;;;;;5013376;28;20185;-68
2023/01/13 09:36:34;;;;;;;2.40;1.37;;;11.00;99.90;;;;;;5021345;28;20688;-68
2023/01/13 09:39:00;;;;;;;3.93;2.00;;;11.00;99.90;;;;;;5020899;28;20454;-68
2023/01/13 09:44:26;;;;;;;7.30;2.10;;;11.10;99.90;;;;;;5020693;28;20198;-66
2023/01/13 09:46:57;;;;;;;3.20;2.03;;;11.20;99.90;;;;;;5021038;28;20453;-65
2023/01/13 09:49:42;;;;;;;2.50;1.40;;;11.20;99.90;;;;;;5022050;28;20431;-65
2023/01/13 09:52:14;;;;;;;4.43;1.60;;;11.20;99.90;;;;;;5018849;28;20702;-65
2023/01/13 09:55:07;;;;;;;5.37;1.47;;;11.20;99.90;;;;;;5019030;28;20443;-64
2023/01/13 09:57:36;;;;;;;5.73;1.50;;;11.20;99.90;;;;;;5013851;28;20435;-64
2023/01/13 10:00:08;;;;;;;5.50;1.70;;;11.30;99.90;;;;;;5021387;28;20434;-64
2023/01/13 10:02:52;;;;;;;6.17;2.13;;;11.30;99.90;;;;;;5016591;28;20500;-67
2023/01/13 10:05:37;;;;;;;4.33;1.70;;;11.20;99.90;;;;;;5022667;28;20667;-65
2023/01/13 10:08:17;;;;;;;7.20;2.20;;;11.30;99.90;;;;;;5019597;28;20518;-65
2023/01/13 10:10:49;;;;;;;3.97;1.77;;;11.20;99.90;;;;;;5016100;28;20444;-66
2023/01/13 10:13:22;;;;;;;3.00;1.70;;;11.30;99.90;;;;;;5015628;28;20463;-66
2023/01/13 10:15:57;;;;;;;4.33;1.80;;;11.30;99.90;;;;;;5019081;28;20438;-65
2023/01/13 10:18:45;;;;;;;3.00;1.63;;;11.30;99.90;;;;;;5014813;28;20429;-66
2023/01/13 10:21:59;;;;;;;4.60;1.90;;;11.30;99.90;;;;;;5017598;28;20434;-67
2023/01/13 10:24:37;;;;;;;4.00;1.80;;;11.20;99.90;;;;;;5021123;28;20454;-68
2023/01/13 10:27:11;;;;;;;4.17;1.50;;;11.30;99.90;;;;;;5019023;28;20467;-68
2023/01/13 10:29:37;;;;;;;4.27;1.50;;;11.20;99.90;;;;;;5021541;28;20446;-67
2023/01/13 10:32:02;;;;;;;4.27;1.87;;;11.20;99.90;;;;;;5016126;28;20470;-68
2023/01/13 10:34:28;;;;;;;3.60;1.60;;;11.10;99.90;;;;;;5020521;28;20180;-69
2023/01/13 10:36:59;;;;;;;6.67;1.57;;;11.20;99.90;;;;;;5020388;28;20259;-68
2023/01/13 10:39:24;;;;;;;3.57;1.70;;;11.10;99.90;;;;;;5013941;28;20444;-67
2023/01/13 10:42:00;;;;;;;6.17;1.70;;;11.10;99.90;;;;;;5020122;28;20446;-67
2023/01/13 10:44:26;;;;;;;5.83;1.80;;;11.20;99.90;;;;;;5013321;28;20180;-66
2023/01/13 10:46:54;;;;;;;5.00;2.10;;;11.30;99.90;;;;;;5015597;28;20446;-66
2023/01/13 10:49:28;;;;;;;2.60;1.37;;;11.30;99.90;;;;;;5016554;28;20176;-67
2023/01/13 10:51:53;;;;;;;5.17;1.90;;;11.40;99.90;;;;;;5016605;28;20485;-68
2023/01/13 10:54:22;;;;;;;6.83;1.70;;;11.30;99.90;;;;;;5016876;28;20855;-68
2023/01/13 10:56:49;;;;;;;5.87;1.80;;;11.40;99.90;;;;;;5020521;28;20215;-68
2023/01/13 10:59:22;;;;;;;6.80;2.23;;;11.40;99.90;;;;;;5015472;28;20431;-67
2023/01/13 11:02:24;;;;;;;3.27;1.80;;;11.40;99.90;;;;;;5016170;28;20855;-67
2023/01/13 11:04:52;;;;;;;5.17;1.90;;;11.40;99.90;;;;;;5004482;28;20441;-67
2023/01/13 11:07:51;;;;;;;6.00;2.13;;;11.40;99.90;;;;;;5006835;28;20810;-67
2023/01/13 11:10:26;;;;;;;5.67;2.23;;;11.30;99.90;;;;;;5015823;28;20510;-67
2023/01/13 11:13:10;;;;;;;5.13;2.27;;;11.30;99.90;;;;;;5015321;28;20465;-67
2023/01/13 11:16:07;;;;;;;4.67;1.70;;;11.20;99.90;;;;;;5010941;28;20446;-67
2023/01/13 11:19:12;;;;;;;3.53;1.67;;;11.20;99.90;;;;;;5013987;28;20436;-67
2023/01/13 11:21:46;;;;;;;7.40;2.23;;;11.30;99.90;;;;;;5016861;28;20517;-67
2023/01/13 11:24:20;;;;;;;5.37;1.70;;;11.40;99.90;;;;;;5013252;28;20437;-67
2023/01/13 11:27:00;;;;;;;5.27;1.87;;;11.30;99.90;;;;;;5017249;28;20517;-67
2023/01/13 11:29:50;;;;;;;4.60;1.70;;;11.20;99.90;;;;;;5014756;28;20440;-67
2023/01/13 11:32:21;;;;;;;5.37;1.97;;;11.10;99.90;;;;;;5005378;28;20497;-67
2023/01/13 11:34:59;;;;;;;4.20;1.90;;;11.20;99.90;;;;;;5016138;28;20423;-67
2023/01/13 11:37:30;;;;;;;8.33;2.40;;;11.30;99.90;;;;;;5017307;28;20468;-67
2023/01/13 11:40:14;;;;;;;5.20;2.00;;;11.30;99.90;;;;;;5016737;28;20524;-67
2023/01/13 11:42:48;;;;;;;6.90;2.60;;;11.30;99.90;;;;;;5017989;28;20951;-67
2023/01/13 11:45:38;;;;;;;7.13;1.90;;;11.40;99.90;;;;;;5012966;28;20449;-66
2023/01/13 11:48:04;;;;;;;5.10;2.67;;;11.40;99.90;;;;;;5019599;28;20459;-67
2023/01/13 11:50:46;;;;;;;5.13;1.67;;;11.30;99.90;;;;;;5019374;28;20584;-67
2023/01/13 11:53:27;;;;;;;5.77;2.60;;;11.00;99.90;;;;;;5014940;28;20236;-66
2023/01/13 11:56:01;;;;;;;3.40;1.67;;;10.70;99.90;;;;;;5015629;28;20956;-68
2023/01/13 11:58:54;;;;;;;3.03;1.53;;;10.30;99.90;;;;;;5007491;28;20958;-66
2023/01/13 12:01:54;;;;;;;7.23;2.57;;;9.90;99.90;;;;;;5010773;28;20937;-67
2023/01/13 12:04:30;;;;;;;4.90;1.70;;;9.90;99.90;;;;;;5013816;28;20427;-67
2023/01/13 12:07:18;;;;;;;3.90;1.80;;;10.00;99.90;;;;;;5020006;28;20499;-67
2023/01/13 12:10:27;;;;;;;7.67;2.13;;;10.00;99.90;;;;;;5012260;28;20947;-67
2023/01/13 12:13:02;;;;;;;7.07;1.57;;;10.00;99.90;;;;;;4990710;28;20966;-69
2023/01/13 12:15:45;;;;;;;5.10;1.73;;;10.10;99.90;;;;;;4993208;28;22515;-68
2023/01/13 12:18:48;;;;;;;6.30;2.20;;;10.10;99.90;;;;;;5006012;28;20878;-68
2023/01/13 12:21:24;;;;;;;6.03;2.30;;;10.40;99.90;;;;;;5012397;28;20920;-69
2023/01/13 12:24:28;;;;;;;5.90;2.20;;;10.40;99.90;;;;;;5010527;28;20809;-70
2023/01/13 12:27:17;;;;;;;6.93;2.40;;;10.70;99.90;;;;;;5013952;28;20457;-69
2023/01/13 12:29:45;;;;;;;4.87;1.90;;;11.20;99.90;;;;;;5007671;28;20450;-67
2023/01/13 12:32:15;;;;;;;10.47;2.80;;;11.70;99.90;;;;;;5005379;28;20466;-67
2023/01/13 12:35:23;;;;;;;8.60;3.60;;;11.80;99.90;;;;;;5002587;28;20443;-67
2023/01/13 12:38:34;;;;;;;5.80;2.20;;;12.10;99.90;;;;;;5014417;28;20443;-67
2023/01/13 12:41:19;;;;;;;7.40;2.07;;;12.00;99.90;;;;;;5013500;28;20427;-69
2023/01/13 12:46:31;;;;;;;7.23;2.10;;;11.50;99.90;;;;;;5008841;28;20462;-68
2023/01/13 12:49:16;;;;;;;4.20;1.80;;;11.20;99.90;;;;;;5014297;28;20439;-67
2023/01/13 12:51:53;;;;;;;3.87;1.87;;;11.00;99.90;;;;;;5011651;28;20201;-66
2023/01/13 12:54:37;;;;;;;5.10;2.13;;;11.00;99.90;;;;;;5008523;28;20450;-66
2023/01/13 12:57:15;;;;;;;3.23;1.53;;;11.00;99.90;;;;;;5014809;28;20458;-67
2023/01/13 12:59:47;;;;;;;4.20;1.60;;;10.90;99.90;;;;;;5017152;28;20450;-67
2023/01/13 13:02:14;;;;;;;4.50;1.57;;;10.90;99.90;;;;;;5016590;28;20438;-67
2023/01/13 13:04:52;;;;;;;9.17;1.93;;;10.80;99.90;;;;;;5022942;28;21023;-67
2023/01/13 13:07:43;;;;;;;4.13;1.50;;;10.70;99.90;;;;;;5025526;28;20553;-67
2023/01/13 13:10:30;;;;;;;7.80;2.00;;;10.60;99.90;;;;;;5019726;28;20439;-66
2023/01/13 13:13:17;;;;;;;4.37;1.73;;;10.40;99.90;;;;;;5021535;28;20461;-67
2023/01/13 13:15:47;;;;;;;5.00;1.57;;;10.40;99.90;;;;;;5015597;28;20638;-67
2023/01/13 13:18:22;;;;;;;5.40;2.00;;;10.30;99.90;;;;;;5017204;28;20431;-67
2023/01/13 13:20:58;;;;;;;3.93;1.90;;;10.20;99.90;;;;;;5014123;28;20529;-67
2023/01/13 13:24:01;;;;;;;2.70;1.67;;;10.20;99.90;;;;;;5020817;28;20513;-67
2023/01/13 13:26:36;;;;;;;5.53;1.60;;;10.00;99.90;;;;;;5018436;28;20443;-67
2023/01/13 13:29:23;;;;;;;6.13;1.77;;;10.10;99.90;;;;;;5018722;28;20995;-67
2023/01/13 13:32:03;;;;;;;4.27;2.00;;;10.10;99.90;;;;;;5015382;28;20475;-66
2023/01/13 13:34:37;;;;;;;8.73;2.20;;;10.10;99.90;;;;;;5021269;28;21197;-66
2023/01/13 13:37:09;;;;;;;4.13;1.87;;;10.30;99.90;;;;;;5018876;28;20459;-66
2023/01/13 13:48:33;;;;;;;6.57;1.97;;;10.80;99.90;;;;;;5016025;28;20451;-68
2023/01/13 13:51:03;;;;;;;3.50;1.57;;;10.90;99.90;;;;;;4995159;28;20451;-67
2023/01/13 13:53:34;;;;;;;4.40;1.80;;;11.00;99.90;;;;;;5014092;28;20478;-67
2023/01/13 13:56:02;;;;;;;2.97;1.67;;;11.20;99.90;;;;;;5015579;28;20534;-67
2023/01/13 13:58:32;;;;;;;2.83;1.60;;;11.10;99.90;;;;;;5014319;28;20517;-67
2023/01/13 14:00:58;;;;;;;7.50;2.07;;;11.10;99.90;;;;;;5015805;28;20534;-67
2023/01/13 14:03:33;;;;;;;9.73;2.27;;;11.10;99.90;;;;;;5013290;28;20482;-68
2023/01/13 14:06:02;;;;;;;2.87;1.80;;;11.10;99.90;;;;;;5012049;28;20562;-67